RYR3054 EICK-LFOB
Flight info
| Callsign | RYR3054 |
|---|---|
| Flight time | 1h 11m |
| Altitude | 35000 |
| Route | ELTIG1N ELTIG DCT NORLA DCT PEWBI DCT OXLOW M140 SAM L620 MID Y803 SFD/N0358F230 M605 HARDY/N0338F190 M605 PETAX/N0329F170 J150 VELOL |
| Aircraft | B738/M-SDE2E3FGHIRWXY/LB1 |
Departure
| Time | 2026-04-26 07:18 |
|---|---|
| Airport | Cork International Airport (EICK) |
Arrival
| Time | 2026-04-26 08:29 |
|---|---|
| Airport | Beauvais-Tillé airport (LFOB) |
| Time | Latitude | Longitude | Altitude | Speed | Heading |
|---|---|---|---|---|---|
| 2026-04-26 06:39 | 51.84752 | -8.49038 | 503 ft | 0 kts | 69° |
| 2026-04-26 07:07 | 51.84752 | -8.49041 | 503 ft | 2 kts | 69° |
| 2026-04-26 07:07 | 51.84743 | -8.49081 | 503 ft | 4 kts | 74° |
| 2026-04-26 07:07 | 51.84737 | -8.49123 | 503 ft | 4 kts | 83° |
| 2026-04-26 07:07 | 51.84737 | -8.49166 | 503 ft | 4 kts | 106° |
| 2026-04-26 07:08 | 51.84747 | -8.49194 | 503 ft | 2 kts | 159° |
| 2026-04-26 07:08 | 51.84748 | -8.49194 | 503 ft | 1 kts | 159° |
| 2026-04-26 07:12 | 51.84742 | -8.49191 | 503 ft | 3 kts | 159° |
| 2026-04-26 07:12 | 51.84717 | -8.49174 | 503 ft | 6 kts | 158° |
| 2026-04-26 07:12 | 51.84665 | -8.49143 | 503 ft | 10 kts | 160° |
| 2026-04-26 07:13 | 51.84589 | -8.49096 | 503 ft | 13 kts | 161° |
| 2026-04-26 07:13 | 51.84494 | -8.49041 | 503 ft | 15 kts | 160° |
| 2026-04-26 07:13 | 51.84407 | -8.48990 | 503 ft | 9 kts | 161° |
| 2026-04-26 07:13 | 51.84357 | -8.48994 | 503 ft | 7 kts | 224° |
| 2026-04-26 07:14 | 51.84328 | -8.49067 | 503 ft | 9 kts | 242° |
| 2026-04-26 07:14 | 51.84299 | -8.49157 | 503 ft | 9 kts | 244° |
| 2026-04-26 07:14 | 51.84249 | -8.49183 | 503 ft | 9 kts | 158° |
| 2026-04-26 07:14 | 51.84178 | -8.49138 | 503 ft | 13 kts | 159° |
| 2026-04-26 07:15 | 51.84079 | -8.49080 | 503 ft | 18 kts | 161° |
| 2026-04-26 07:15 | 51.83945 | -8.49001 | 503 ft | 23 kts | 160° |
| 2026-04-26 07:15 | 51.83780 | -8.48903 | 503 ft | 28 kts | 160° |
| 2026-04-26 07:15 | 51.83598 | -8.48796 | 503 ft | 28 kts | 160° |
| 2026-04-26 07:16 | 51.83422 | -8.48692 | 503 ft | 26 kts | 160° |
| 2026-04-26 07:16 | 51.83307 | -8.48611 | 503 ft | 11 kts | 133° |
| 2026-04-26 07:16 | 51.83268 | -8.48531 | 503 ft | 9 kts | 173° |
| 2026-04-26 07:16 | 51.83260 | -8.48597 | 503 ft | 3 kts | 334° |
| 2026-04-26 07:17 | 51.83276 | -8.48609 | 503 ft | 3 kts | 336° |
| 2026-04-26 07:17 | 51.83293 | -8.48621 | 503 ft | 3 kts | 336° |
| 2026-04-26 07:17 | 51.83386 | -8.48676 | 503 ft | 41 kts | 341° |
| 2026-04-26 07:17 | 51.83895 | -8.48973 | 503 ft | 113 kts | 340° |
| 2026-04-26 07:18 | 51.84822 | -8.49531 | 582 ft | 164 kts | 339° |
| 2026-04-26 07:18 | 51.85885 | -8.50141 | 1394 ft | 160 kts | 342° |
| 2026-04-26 07:18 | 51.86983 | -8.50692 | 2157 ft | 169 kts | 343° |
| 2026-04-26 07:18 | 51.88138 | -8.51178 | 2892 ft | 183 kts | 354° |
| 2026-04-26 07:19 | 51.89427 | -8.50565 | 3240 ft | 213 kts | 39° |
| 2026-04-26 07:19 | 51.90182 | -8.48415 | 3592 ft | 233 kts | 83° |
| 2026-04-26 07:19 | 51.89930 | -8.45786 | 4250 ft | 240 kts | 111° |
| 2026-04-26 07:19 | 51.89262 | -8.43279 | 5134 ft | 244 kts | 112° |
| 2026-04-26 07:20 | 51.88631 | -8.40751 | 6041 ft | 246 kts | 111° |
| 2026-04-26 07:20 | 51.87986 | -8.38034 | 6455 ft | 270 kts | 111° |
| 2026-04-26 07:20 | 51.87314 | -8.35154 | 7194 ft | 277 kts | 111° |
| 2026-04-26 07:20 | 51.86635 | -8.32217 | 8053 ft | 280 kts | 111° |
| 2026-04-26 07:21 | 51.85951 | -8.29247 | 8908 ft | 284 kts | 111° |
| 2026-04-26 07:21 | 51.85258 | -8.26234 | 9738 ft | 289 kts | 112° |
| 2026-04-26 07:21 | 51.84553 | -8.23167 | 10522 ft | 293 kts | 112° |
| 2026-04-26 07:21 | 51.83817 | -8.19975 | 10841 ft | 316 kts | 112° |
| 2026-04-26 07:22 | 51.83024 | -8.16537 | 11186 ft | 334 kts | 112° |
| 2026-04-26 07:22 | 51.82205 | -8.12979 | 11847 ft | 341 kts | 111° |
| 2026-04-26 07:22 | 51.81383 | -8.09411 | 12626 ft | 345 kts | 111° |
| 2026-04-26 07:22 | 51.80540 | -8.05762 | 13412 ft | 349 kts | 111° |
| 2026-04-26 07:23 | 51.79686 | -8.02071 | 14149 ft | 353 kts | 111° |
| 2026-04-26 07:23 | 51.78821 | -7.98333 | 14836 ft | 357 kts | 111° |
| 2026-04-26 07:23 | 51.77946 | -7.94562 | 15543 ft | 360 kts | 111° |
| 2026-04-26 07:23 | 51.77064 | -7.90767 | 16248 ft | 363 kts | 111° |
| 2026-04-26 07:24 | 51.76170 | -7.86933 | 16943 ft | 366 kts | 111° |
| 2026-04-26 07:24 | 51.75274 | -7.83060 | 17608 ft | 371 kts | 110° |
| 2026-04-26 07:24 | 51.74567 | -7.79040 | 18282 ft | 375 kts | 104° |
| 2026-04-26 07:24 | 51.74018 | -7.74917 | 18913 ft | 377 kts | 102° |
| 2026-04-26 07:25 | 51.73505 | -7.70748 | 19512 ft | 380 kts | 102° |
| 2026-04-26 07:25 | 51.72985 | -7.66550 | 20087 ft | 384 kts | 102° |
| 2026-04-26 07:25 | 51.72443 | -7.62315 | 20652 ft | 387 kts | 103° |
| 2026-04-26 07:25 | 51.71882 | -7.58053 | 21219 ft | 390 kts | 103° |
| 2026-04-26 07:26 | 51.71305 | -7.53761 | 21775 ft | 393 kts | 104° |
| 2026-04-26 07:26 | 51.70714 | -7.49436 | 22320 ft | 397 kts | 104° |
| 2026-04-26 07:26 | 51.70113 | -7.45078 | 22859 ft | 400 kts | 104° |
| 2026-04-26 07:26 | 51.69504 | -7.40688 | 23377 ft | 403 kts | 105° |
| 2026-04-26 07:27 | 51.68888 | -7.36266 | 23857 ft | 406 kts | 105° |
| 2026-04-26 07:27 | 51.68266 | -7.31809 | 24267 ft | 409 kts | 105° |
| 2026-04-26 07:27 | 51.67637 | -7.27320 | 24658 ft | 413 kts | 105° |
| 2026-04-26 07:27 | 51.67001 | -7.22789 | 25003 ft | 417 kts | 105° |
| 2026-04-26 07:28 | 51.66356 | -7.18210 | 25353 ft | 421 kts | 105° |
| 2026-04-26 07:28 | 51.65705 | -7.13600 | 25744 ft | 424 kts | 105° |
| 2026-04-26 07:28 | 51.65049 | -7.08965 | 26125 ft | 426 kts | 105° |
| 2026-04-26 07:28 | 51.64386 | -7.04293 | 26486 ft | 430 kts | 105° |
| 2026-04-26 07:29 | 51.63715 | -6.99581 | 26836 ft | 433 kts | 105° |
| 2026-04-26 07:29 | 51.63040 | -6.94847 | 27184 ft | 436 kts | 106° |
| 2026-04-26 07:29 | 51.62356 | -6.90075 | 27529 ft | 439 kts | 106° |
| 2026-04-26 07:29 | 51.61661 | -6.85273 | 27879 ft | 442 kts | 106° |
| 2026-04-26 07:30 | 51.60924 | -6.80455 | 28233 ft | 445 kts | 107° |
| 2026-04-26 07:30 | 51.60158 | -6.75626 | 28600 ft | 447 kts | 107° |
| 2026-04-26 07:30 | 51.59376 | -6.70761 | 28858 ft | 452 kts | 107° |
| 2026-04-26 07:30 | 51.58584 | -6.65849 | 29143 ft | 456 kts | 107° |
| 2026-04-26 07:31 | 51.57789 | -6.60901 | 29514 ft | 458 kts | 107° |
| 2026-04-26 07:31 | 51.56992 | -6.55936 | 29870 ft | 460 kts | 107° |
| 2026-04-26 07:31 | 51.56192 | -6.50949 | 30188 ft | 462 kts | 107° |
| 2026-04-26 07:31 | 51.55385 | -6.45926 | 30456 ft | 465 kts | 107° |
| 2026-04-26 07:32 | 51.54574 | -6.40886 | 30716 ft | 468 kts | 107° |
| 2026-04-26 07:32 | 51.53755 | -6.35816 | 30995 ft | 470 kts | 107° |
| 2026-04-26 07:32 | 51.52933 | -6.30733 | 31257 ft | 471 kts | 107° |
| 2026-04-26 07:32 | 51.52385 | -6.27359 | 31441 ft | 472 kts | 107° |
| 2026-04-26 07:33 | 51.51556 | -6.22260 | 31797 ft | 471 kts | 107° |
| 2026-04-26 07:33 | 51.50729 | -6.17191 | 32242 ft | 468 kts | 107° |
| 2026-04-26 07:33 | 51.49904 | -6.12147 | 32606 ft | 467 kts | 107° |
| 2026-04-26 07:33 | 51.49076 | -6.07104 | 32886 ft | 468 kts | 107° |
| 2026-04-26 07:34 | 51.48241 | -6.02044 | 33173 ft | 469 kts | 107° |
| 2026-04-26 07:34 | 51.47407 | -5.96997 | 33509 ft | 468 kts | 107° |
| 2026-04-26 07:34 | 51.46573 | -5.91962 | 33882 ft | 467 kts | 107° |
| 2026-04-26 07:34 | 51.45737 | -5.86933 | 34195 ft | 467 kts | 107° |
| 2026-04-26 07:35 | 51.44899 | -5.81909 | 34444 ft | 467 kts | 107° |
| 2026-04-26 07:35 | 51.44058 | -5.76876 | 34699 ft | 467 kts | 107° |
| 2026-04-26 07:35 | 51.43217 | -5.71859 | 34958 ft | 466 kts | 107° |
| 2026-04-26 07:35 | 51.42375 | -5.66853 | 35292 ft | 464 kts | 107° |
| 2026-04-26 07:36 | 51.41537 | -5.61880 | 35588 ft | 462 kts | 107° |
| 2026-04-26 07:36 | 51.40695 | -5.56906 | 35809 ft | 463 kts | 107° |
| 2026-04-26 07:36 | 51.39850 | -5.51924 | 36005 ft | 464 kts | 107° |
| 2026-04-26 07:36 | 51.39002 | -5.46939 | 36246 ft | 463 kts | 107° |
| 2026-04-26 07:37 | 51.38154 | -5.41970 | 36505 ft | 463 kts | 107° |
| 2026-04-26 07:37 | 51.37306 | -5.37009 | 36743 ft | 462 kts | 107° |
| 2026-04-26 07:37 | 51.36454 | -5.32047 | 36956 ft | 462 kts | 107° |
| 2026-04-26 07:37 | 51.35602 | -5.27093 | 37174 ft | 462 kts | 108° |
| 2026-04-26 07:38 | 51.34745 | -5.22123 | 37263 ft | 465 kts | 108° |
| 2026-04-26 07:38 | 51.33015 | -5.12132 | 37259 ft | 466 kts | 108° |
| 2026-04-26 07:39 | 51.31314 | -5.02185 | 37248 ft | 461 kts | 104° |
| 2026-04-26 07:39 | 51.30380 | -4.92125 | 37259 ft | 461 kts | 98° |
| 2026-04-26 07:40 | 51.29646 | -4.81896 | 37258 ft | 460 kts | 98° |
| 2026-04-26 07:40 | 51.28878 | -4.71839 | 37251 ft | 459 kts | 99° |
| 2026-04-26 07:41 | 51.28054 | -4.61719 | 37259 ft | 460 kts | 99° |
| 2026-04-26 07:41 | 51.27203 | -4.51586 | 37259 ft | 461 kts | 99° |
| 2026-04-26 07:42 | 51.26341 | -4.41434 | 37259 ft | 462 kts | 99° |
| 2026-04-26 07:42 | 51.25468 | -4.31252 | 37258 ft | 464 kts | 99° |
| 2026-04-26 07:43 | 51.24585 | -4.21048 | 37256 ft | 465 kts | 99° |
| 2026-04-26 07:43 | 51.23691 | -4.10829 | 37267 ft | 465 kts | 99° |
| 2026-04-26 07:44 | 51.22787 | -4.00592 | 37268 ft | 466 kts | 99° |
| 2026-04-26 07:44 | 51.21874 | -3.90358 | 37270 ft | 466 kts | 99° |
| 2026-04-26 07:45 | 51.20951 | -3.80114 | 37254 ft | 466 kts | 99° |
| 2026-04-26 07:45 | 51.20020 | -3.69892 | 37262 ft | 466 kts | 99° |
| 2026-04-26 07:46 | 51.19081 | -3.59679 | 37267 ft | 465 kts | 99° |
| 2026-04-26 07:46 | 51.18136 | -3.49494 | 37274 ft | 464 kts | 99° |
| 2026-04-26 07:47 | 51.17182 | -3.39327 | 37274 ft | 464 kts | 99° |
| 2026-04-26 07:47 | 51.16227 | -3.29244 | 37277 ft | 463 kts | 99° |
| 2026-04-26 07:48 | 51.15259 | -3.19117 | 37281 ft | 462 kts | 99° |
| 2026-04-26 07:48 | 51.14283 | -3.08996 | 37282 ft | 462 kts | 99° |
| 2026-04-26 07:49 | 51.13300 | -2.98899 | 37285 ft | 462 kts | 99° |
| 2026-04-26 07:49 | 51.12308 | -2.88807 | 37293 ft | 461 kts | 100° |
| 2026-04-26 07:50 | 51.10804 | -2.73679 | 37296 ft | 461 kts | 99° |
| 2026-04-26 07:50 | 51.09790 | -2.63595 | 37296 ft | 462 kts | 100° |
| 2026-04-26 07:51 | 51.08767 | -2.53513 | 37293 ft | 462 kts | 100° |
| 2026-04-26 07:51 | 51.07735 | -2.43425 | 37292 ft | 462 kts | 100° |
| 2026-04-26 07:52 | 51.06694 | -2.33341 | 37292 ft | 463 kts | 99° |
| 2026-04-26 07:52 | 51.05643 | -2.23250 | 37292 ft | 463 kts | 100° |
| 2026-04-26 07:53 | 51.04583 | -2.13153 | 37291 ft | 463 kts | 100° |
| 2026-04-26 07:53 | 51.03516 | -2.03066 | 37298 ft | 463 kts | 100° |
| 2026-04-26 07:54 | 51.02408 | -1.92984 | 37295 ft | 463 kts | 101° |
| 2026-04-26 07:54 | 51.01235 | -1.82918 | 37297 ft | 464 kts | 101° |
| 2026-04-26 07:55 | 51.00057 | -1.72848 | 37296 ft | 464 kts | 101° |
| 2026-04-26 07:55 | 50.98879 | -1.62784 | 37293 ft | 464 kts | 101° |
| 2026-04-26 07:56 | 50.97693 | -1.52717 | 37296 ft | 464 kts | 101° |
| 2026-04-26 07:56 | 50.96508 | -1.42724 | 37294 ft | 464 kts | 101° |
| 2026-04-26 07:57 | 50.95911 | -1.32580 | 37299 ft | 462 kts | 85° |
| 2026-04-26 07:57 | 50.97104 | -1.22608 | 37307 ft | 460 kts | 75° |
| 2026-04-26 07:58 | 50.98560 | -1.12713 | 37304 ft | 461 kts | 76° |
| 2026-04-26 07:58 | 50.99937 | -1.02782 | 37302 ft | 461 kts | 76° |
| 2026-04-26 07:59 | 51.01299 | -0.92827 | 37318 ft | 461 kts | 76° |
| 2026-04-26 07:59 | 51.02654 | -0.82864 | 37314 ft | 461 kts | 76° |
| 2026-04-26 08:00 | 51.04001 | -0.72902 | 37185 ft | 461 kts | 76° |
| 2026-04-26 08:00 | 51.04612 | -0.67907 | 36813 ft | 458 kts | 82° |
| 2026-04-26 08:00 | 51.04564 | -0.62887 | 36449 ft | 454 kts | 101° |
| 2026-04-26 08:01 | 51.03684 | -0.58123 | 36124 ft | 448 kts | 115° |
| 2026-04-26 08:01 | 51.02190 | -0.53822 | 35718 ft | 443 kts | 124° |
| 2026-04-26 08:01 | 51.00531 | -0.49729 | 35344 ft | 440 kts | 124° |
| 2026-04-26 08:01 | 50.98887 | -0.45639 | 34946 ft | 438 kts | 123° |
| 2026-04-26 08:02 | 50.97270 | -0.41574 | 34570 ft | 435 kts | 123° |
| 2026-04-26 08:02 | 50.95669 | -0.37515 | 34173 ft | 433 kts | 123° |
| 2026-04-26 08:02 | 50.94082 | -0.33474 | 33751 ft | 430 kts | 123° |
| 2026-04-26 08:02 | 50.92511 | -0.29464 | 33363 ft | 427 kts | 123° |
| 2026-04-26 08:03 | 50.90950 | -0.25478 | 32980 ft | 424 kts | 123° |
| 2026-04-26 08:03 | 50.89420 | -0.21579 | 32620 ft | 421 kts | 123° |
| 2026-04-26 08:03 | 50.87860 | -0.17607 | 32252 ft | 418 kts | 123° |
| 2026-04-26 08:03 | 50.86349 | -0.13771 | 31891 ft | 415 kts | 123° |
| 2026-04-26 08:04 | 50.84827 | -0.09911 | 31540 ft | 412 kts | 123° |
| 2026-04-26 08:04 | 50.83313 | -0.06076 | 31190 ft | 409 kts | 123° |
| 2026-04-26 08:04 | 50.81807 | -0.02269 | 30841 ft | 407 kts | 123° |
| 2026-04-26 08:04 | 50.80310 | 0.01513 | 30507 ft | 405 kts | 123° |
| 2026-04-26 08:05 | 50.78818 | 0.05275 | 30114 ft | 403 kts | 123° |
| 2026-04-26 08:05 | 50.77332 | 0.09013 | 29723 ft | 400 kts | 123° |
| 2026-04-26 08:05 | 50.75685 | 0.12523 | 29357 ft | 396 kts | 134° |
| 2026-04-26 08:05 | 50.73677 | 0.15441 | 29011 ft | 390 kts | 144° |
| 2026-04-26 08:06 | 50.71547 | 0.18078 | 28642 ft | 388 kts | 144° |
| 2026-04-26 08:06 | 50.69439 | 0.20720 | 28280 ft | 386 kts | 143° |
| 2026-04-26 08:06 | 50.67351 | 0.23365 | 27924 ft | 384 kts | 143° |
| 2026-04-26 08:06 | 50.65282 | 0.26003 | 27557 ft | 382 kts | 143° |
| 2026-04-26 08:07 | 50.63224 | 0.28631 | 27201 ft | 380 kts | 143° |
| 2026-04-26 08:07 | 50.61177 | 0.31245 | 26846 ft | 378 kts | 143° |
| 2026-04-26 08:07 | 50.59135 | 0.33847 | 26510 ft | 376 kts | 143° |
| 2026-04-26 08:07 | 50.57102 | 0.36433 | 26165 ft | 375 kts | 143° |
| 2026-04-26 08:08 | 50.55076 | 0.39007 | 25828 ft | 374 kts | 143° |
| 2026-04-26 08:08 | 50.53059 | 0.41567 | 25487 ft | 372 kts | 143° |
| 2026-04-26 08:08 | 50.51046 | 0.44120 | 25137 ft | 371 kts | 143° |
| 2026-04-26 08:08 | 50.49038 | 0.46662 | 24797 ft | 371 kts | 143° |
| 2026-04-26 08:09 | 50.47032 | 0.49199 | 24455 ft | 370 kts | 143° |
| 2026-04-26 08:09 | 50.45029 | 0.51730 | 24108 ft | 370 kts | 143° |
| 2026-04-26 08:09 | 50.43026 | 0.54258 | 23735 ft | 369 kts | 143° |
| 2026-04-26 08:09 | 50.41022 | 0.56783 | 23324 ft | 368 kts | 143° |
| 2026-04-26 08:10 | 50.39033 | 0.59290 | 22959 ft | 367 kts | 143° |
| 2026-04-26 08:10 | 50.37045 | 0.61791 | 22610 ft | 365 kts | 143° |
| 2026-04-26 08:10 | 50.35072 | 0.64271 | 22265 ft | 363 kts | 143° |
| 2026-04-26 08:10 | 50.33112 | 0.66730 | 21924 ft | 361 kts | 143° |
| 2026-04-26 08:11 | 50.31155 | 0.69183 | 21577 ft | 359 kts | 143° |
| 2026-04-26 08:11 | 50.29209 | 0.71619 | 21244 ft | 357 kts | 143° |
| 2026-04-26 08:11 | 50.27272 | 0.74043 | 20910 ft | 356 kts | 143° |
| 2026-04-26 08:11 | 50.25343 | 0.76455 | 20571 ft | 355 kts | 143° |
| 2026-04-26 08:12 | 50.23419 | 0.78860 | 20229 ft | 354 kts | 143° |
| 2026-04-26 08:12 | 50.21502 | 0.81251 | 19896 ft | 353 kts | 143° |
| 2026-04-26 08:12 | 50.19586 | 0.83639 | 19558 ft | 352 kts | 143° |
| 2026-04-26 08:12 | 50.17747 | 0.86142 | 19247 ft | 350 kts | 135° |
| 2026-04-26 08:13 | 50.16139 | 0.88893 | 19035 ft | 345 kts | 132° |
| 2026-04-26 08:13 | 50.14594 | 0.91728 | 18807 ft | 341 kts | 131° |
| 2026-04-26 08:13 | 50.13072 | 0.94543 | 18498 ft | 339 kts | 131° |
| 2026-04-26 08:13 | 50.11549 | 0.97330 | 18139 ft | 337 kts | 131° |
| 2026-04-26 08:14 | 50.10022 | 1.00094 | 17784 ft | 336 kts | 131° |
| 2026-04-26 08:14 | 50.08494 | 1.02832 | 17429 ft | 334 kts | 132° |
| 2026-04-26 08:14 | 50.06964 | 1.05557 | 17082 ft | 333 kts | 132° |
| 2026-04-26 08:14 | 50.05437 | 1.08265 | 16736 ft | 332 kts | 132° |
| 2026-04-26 08:15 | 50.03912 | 1.10963 | 16385 ft | 332 kts | 132° |
| 2026-04-26 08:15 | 50.02388 | 1.13656 | 16030 ft | 331 kts | 132° |
| 2026-04-26 08:15 | 50.00864 | 1.16343 | 15660 ft | 331 kts | 132° |
| 2026-04-26 08:15 | 49.99343 | 1.19026 | 15317 ft | 331 kts | 132° |
| 2026-04-26 08:16 | 49.97825 | 1.21700 | 14983 ft | 329 kts | 132° |
| 2026-04-26 08:16 | 49.96309 | 1.24365 | 14631 ft | 329 kts | 132° |
| 2026-04-26 08:16 | 49.94792 | 1.27029 | 14284 ft | 329 kts | 132° |
| 2026-04-26 08:16 | 49.93179 | 1.29534 | 13917 ft | 328 kts | 144° |
| 2026-04-26 08:17 | 49.91232 | 1.31333 | 13589 ft | 324 kts | 152° |
| 2026-04-26 08:17 | 49.89264 | 1.33029 | 13241 ft | 323 kts | 150° |
| 2026-04-26 08:17 | 49.87339 | 1.34803 | 12888 ft | 321 kts | 149° |
| 2026-04-26 08:17 | 49.85433 | 1.36595 | 12568 ft | 320 kts | 149° |
| 2026-04-26 08:18 | 49.83538 | 1.38382 | 12209 ft | 319 kts | 149° |
| 2026-04-26 08:18 | 49.81613 | 1.40195 | 11534 ft | 329 kts | 148° |
| 2026-04-26 08:18 | 49.79639 | 1.42050 | 10885 ft | 336 kts | 148° |
| 2026-04-26 08:18 | 49.77615 | 1.43947 | 10194 ft | 344 kts | 148° |
| 2026-04-26 08:19 | 49.75628 | 1.45806 | 10162 ft | 330 kts | 148° |
| 2026-04-26 08:19 | 49.73671 | 1.47637 | 10023 ft | 319 kts | 148° |
| 2026-04-26 08:19 | 49.71830 | 1.49357 | 9944 ft | 308 kts | 148° |
| 2026-04-26 08:19 | 49.70025 | 1.51047 | 9812 ft | 291 kts | 148° |
| 2026-04-26 08:20 | 49.68360 | 1.52615 | 9603 ft | 278 kts | 148° |
| 2026-04-26 08:20 | 49.66698 | 1.54180 | 9171 ft | 275 kts | 148° |
| 2026-04-26 08:20 | 49.65069 | 1.55713 | 8717 ft | 273 kts | 148° |
| 2026-04-26 08:20 | 49.63473 | 1.57213 | 8293 ft | 271 kts | 147° |
| 2026-04-26 08:21 | 49.62057 | 1.59062 | 7834 ft | 267 kts | 122° |
| 2026-04-26 08:21 | 49.61491 | 1.61722 | 7413 ft | 262 kts | 93° |
| 2026-04-26 08:21 | 49.61376 | 1.64491 | 7087 ft | 256 kts | 95° |
| 2026-04-26 08:21 | 49.61189 | 1.67174 | 6847 ft | 247 kts | 96° |
| 2026-04-26 08:22 | 49.61006 | 1.69756 | 6666 ft | 236 kts | 96° |
| 2026-04-26 08:22 | 49.60834 | 1.72226 | 6467 ft | 226 kts | 96° |
| 2026-04-26 08:22 | 49.60673 | 1.74536 | 6398 ft | 209 kts | 96° |
| 2026-04-26 08:22 | 49.60378 | 1.76683 | 6112 ft | 204 kts | 115° |
| 2026-04-26 08:23 | 49.59581 | 1.78453 | 5755 ft | 200 kts | 127° |
| 2026-04-26 08:23 | 49.58815 | 1.80248 | 5388 ft | 198 kts | 119° |
| 2026-04-26 08:23 | 49.58106 | 1.82054 | 4990 ft | 197 kts | 121° |
| 2026-04-26 08:23 | 49.57352 | 1.83853 | 4495 ft | 203 kts | 122° |
| 2026-04-26 08:24 | 49.56586 | 1.85631 | 4192 ft | 197 kts | 122° |
| 2026-04-26 08:24 | 49.56081 | 1.86794 | 4042 ft | 190 kts | 122° |
| 2026-04-26 08:24 | 49.55358 | 1.88455 | 3780 ft | 183 kts | 122° |
| 2026-04-26 08:24 | 49.54672 | 1.90030 | 3538 ft | 177 kts | 122° |
| 2026-04-26 08:25 | 49.53996 | 1.91578 | 3312 ft | 172 kts | 122° |
| 2026-04-26 08:25 | 49.53334 | 1.93119 | 3053 ft | 168 kts | 119° |
| 2026-04-26 08:25 | 49.52717 | 1.94596 | 2829 ft | 166 kts | 122° |
| 2026-04-26 08:25 | 49.52056 | 1.96069 | 2624 ft | 166 kts | 122° |
| 2026-04-26 08:26 | 49.51401 | 1.97543 | 2394 ft | 168 kts | 121° |
| 2026-04-26 08:26 | 49.50746 | 1.99052 | 2174 ft | 169 kts | 121° |
| 2026-04-26 08:26 | 49.50109 | 2.00519 | 1944 ft | 158 kts | 121° |
| 2026-04-26 08:26 | 49.49515 | 2.01891 | 1721 ft | 151 kts | 121° |
| 2026-04-26 08:27 | 49.48948 | 2.03197 | 1514 ft | 142 kts | 121° |
| 2026-04-26 08:27 | 49.48406 | 2.04446 | 1329 ft | 145 kts | 121° |
| 2026-04-26 08:27 | 49.47838 | 2.05753 | 1112 ft | 146 kts | 120° |
| 2026-04-26 08:27 | 49.47282 | 2.07037 | 929 ft | 147 kts | 120° |
| 2026-04-26 08:28 | 49.46713 | 2.08358 | 724 ft | 152 kts | 121° |
| 2026-04-26 08:28 | 49.46123 | 2.09708 | 509 ft | 151 kts | 121° |
| 2026-04-26 08:28 | 49.45553 | 2.11025 | 339 ft | 140 kts | 124° |
| 2026-04-26 08:28 | 49.45125 | 2.12007 | 349 ft | 79 kts | 123° |
| 2026-04-26 08:29 | 49.44860 | 2.12617 | 344 ft | 64 kts | 124° |
| 2026-04-26 08:29 | 49.44690 | 2.13006 | 349 ft | 20 kts | 122° |
| 2026-04-26 08:29 | 49.44651 | 2.13188 | 356 ft | 15 kts | 83° |
| 2026-04-26 08:29 | 49.44724 | 2.13288 | 352 ft | 15 kts | 5° |
| 2026-04-26 08:30 | 49.44802 | 2.13203 | 350 ft | 14 kts | 304° |
| 2026-04-26 08:30 | 49.44861 | 2.13071 | 349 ft | 16 kts | 304° |
| 2026-04-26 08:30 | 49.44929 | 2.12915 | 345 ft | 19 kts | 304° |
| 2026-04-26 08:30 | 49.44992 | 2.12769 | 349 ft | 15 kts | 302° |
| 2026-04-26 08:31 | 49.45022 | 2.12619 | 344 ft | 15 kts | 275° |
| 2026-04-26 08:31 | 49.45029 | 2.12467 | 344 ft | 14 kts | 272° |
| 2026-04-26 08:31 | 49.45035 | 2.12309 | 346 ft | 16 kts | 275° |
| 2026-04-26 08:31 | 49.45062 | 2.12149 | 349 ft | 16 kts | 299° |
| 2026-04-26 08:32 | 49.45123 | 2.12005 | 353 ft | 17 kts | 304° |
| 2026-04-26 08:32 | 49.45190 | 2.11851 | 349 ft | 18 kts | 304° |
| 2026-04-26 08:32 | 49.45267 | 2.11674 | 339 ft | 21 kts | 304° |
| 2026-04-26 08:32 | 49.45346 | 2.11494 | 335 ft | 20 kts | 303° |
| 2026-04-26 08:33 | 49.45416 | 2.11333 | 339 ft | 11 kts | 304° |
| 2026-04-26 08:33 | 49.45475 | 2.11315 | 339 ft | 10 kts | 35° |
| 2026-04-26 08:33 | 49.45530 | 2.11387 | 337 ft | 12 kts | 42° |
| 2026-04-26 08:33 | 49.45597 | 2.11476 | 335 ft | 14 kts | 41° |
| 2026-04-26 08:34 | 49.45667 | 2.11574 | 332 ft | 12 kts | 42° |
| 2026-04-26 08:34 | 49.45721 | 2.11607 | 334 ft | 8 kts | 346° |
| 2026-04-26 08:34 | 49.45762 | 2.11549 | 333 ft | 8 kts | 313° |
| 2026-04-26 08:34 | 49.45800 | 2.11494 | 334 ft | 8 kts | 330° |
| 2026-04-26 08:35 | 49.45848 | 2.11508 | 333 ft | 7 kts | 38° |
| 2026-04-26 08:35 | 49.45883 | 2.11550 | 335 ft | 6 kts | 39° |
| 2026-04-26 08:35 | 49.45921 | 2.11567 | 336 ft | 6 kts | 331° |
| 2026-04-26 08:35 | 49.45946 | 2.11523 | 334 ft | 2 kts | 311° |
| 2026-04-26 08:36 | 49.45948 | 2.11520 | 332 ft | 0 kts | 311° |
| 2026-04-26 09:10 | 49.45947 | 2.11522 | 331 ft | 2 kts | 312° |
| 2026-04-26 09:10 | 49.45938 | 2.11540 | 332 ft | 4 kts | 305° |
| 2026-04-26 09:10 | 49.45926 | 2.11575 | 331 ft | 4 kts | 277° |